sensor_id;sensor_type;location;lat;lon;timestamp;P1;durP1;ratioP1;P2;durP2;ratioP2
65471;SDS011;52068;50.710;14.492;2023-11-21T00:01:53;6.07;;;3.60;;
65471;SDS011;52068;50.710;14.492;2023-11-21T00:04:19;6.05;;;3.67;;
65471;SDS011;52068;50.710;14.492;2023-11-21T00:06:44;6.80;;;3.67;;
65471;SDS011;52068;50.710;14.492;2023-11-21T00:09:12;7.13;;;3.70;;
65471;SDS011;52068;50.710;14.492;2023-11-21T00:11:40;5.97;;;3.60;;
65471;SDS011;52068;50.710;14.492;2023-11-21T00:14:06;8.00;;;3.70;;
65471;SDS011;52068;50.710;14.492;2023-11-21T00:16:31;6.40;;;3.47;;
65471;SDS011;52068;50.710;14.492;2023-11-21T00:18:56;6.80;;;3.65;;
65471;SDS011;52068;50.710;14.492;2023-11-21T00:21:22;6.22;;;3.47;;
65471;SDS011;52068;50.710;14.492;2023-11-21T00:23:47;7.90;;;3.53;;
65471;SDS011;52068;50.710;14.492;2023-11-21T00:26:13;7.00;;;4.03;;
65471;SDS011;52068;50.710;14.492;2023-11-21T00:28:39;7.18;;;3.97;;
65471;SDS011;52068;50.710;14.492;2023-11-21T00:31:05;8.52;;;4.28;;
65471;SDS011;52068;50.710;14.492;2023-11-21T00:33:30;5.82;;;3.33;;
65471;SDS011;52068;50.710;14.492;2023-11-21T00:35:56;7.65;;;3.65;;
65471;SDS011;52068;50.710;14.492;2023-11-21T00:38:21;6.70;;;3.42;;
65471;SDS011;52068;50.710;14.492;2023-11-21T00:40:47;8.57;;;3.47;;
65471;SDS011;52068;50.710;14.492;2023-11-21T00:43:12;8.40;;;4.00;;
65471;SDS011;52068;50.710;14.492;2023-11-21T00:45:37;6.50;;;3.60;;
65471;SDS011;52068;50.710;14.492;2023-11-21T00:48:05;8.18;;;3.72;;
65471;SDS011;52068;50.710;14.492;2023-11-21T00:50:30;8.27;;;4.32;;
65471;SDS011;52068;50.710;14.492;2023-11-21T00:52:56;7.43;;;4.43;;
65471;SDS011;52068;50.710;14.492;2023-11-21T00:55:21;11.48;;;4.65;;
65471;SDS011;52068;50.710;14.492;2023-11-21T00:57:47;7.88;;;4.18;;
65471;SDS011;52068;50.710;14.492;2023-11-21T01:00:12;7.38;;;3.90;;
65471;SDS011;52068;50.710;14.492;2023-11-21T01:02:41;11.85;;;4.10;;
65471;SDS011;52068;50.710;14.492;2023-11-21T01:05:08;8.60;;;3.85;;
65471;SDS011;52068;50.710;14.492;2023-11-21T01:07:34;7.25;;;4.18;;
65471;SDS011;52068;50.710;14.492;2023-11-21T01:09:59;12.93;;;4.20;;
65471;SDS011;52068;50.710;14.492;2023-11-21T01:12:25;7.03;;;4.20;;
65471;SDS011;52068;50.710;14.492;2023-11-21T01:14:50;8.18;;;4.03;;
65471;SDS011;52068;50.710;14.492;2023-11-21T01:17:16;7.38;;;4.10;;
65471;SDS011;52068;50.710;14.492;2023-11-21T01:19:43;7.53;;;4.50;;
65471;SDS011;52068;50.710;14.492;2023-11-21T01:22:08;8.10;;;3.85;;
65471;SDS011;52068;50.710;14.492;2023-11-21T01:24:34;7.85;;;4.55;;
65471;SDS011;52068;50.710;14.492;2023-11-21T01:26:59;6.97;;;4.38;;
65471;SDS011;52068;50.710;14.492;2023-11-21T01:29:25;6.93;;;3.80;;
65471;SDS011;52068;50.710;14.492;2023-11-21T01:31:50;7.43;;;4.50;;
65471;SDS011;52068;50.710;14.492;2023-11-21T01:34:16;8.73;;;4.60;;
65471;SDS011;52068;50.710;14.492;2023-11-21T01:36:42;9.13;;;4.50;;
65471;SDS011;52068;50.710;14.492;2023-11-21T01:39:07;7.13;;;4.32;;
65471;SDS011;52068;50.710;14.492;2023-11-21T01:41:35;9.23;;;4.70;;
65471;SDS011;52068;50.710;14.492;2023-11-21T01:44:01;6.80;;;4.32;;
65471;SDS011;52068;50.710;14.492;2023-11-21T01:46:27;6.65;;;4.25;;
65471;SDS011;52068;50.710;14.492;2023-11-21T01:48:54;8.98;;;4.72;;
65471;SDS011;52068;50.710;14.492;2023-11-21T01:51:19;10.48;;;4.57;;
65471;SDS011;52068;50.710;14.492;2023-11-21T01:53:45;6.40;;;4.13;;
65471;SDS011;52068;50.710;14.492;2023-11-21T01:56:11;8.10;;;4.53;;
65471;SDS011;52068;50.710;14.492;2023-11-21T01:58:38;7.57;;;4.60;;
65471;SDS011;52068;50.710;14.492;2023-11-21T02:01:04;6.72;;;3.88;;
65471;SDS011;52068;50.710;14.492;2023-11-21T02:03:30;7.45;;;4.30;;
65471;SDS011;52068;50.710;14.492;2023-11-21T02:05:56;7.22;;;4.50;;
65471;SDS011;52068;50.710;14.492;2023-11-21T02:08:21;7.70;;;4.22;;
65471;SDS011;52068;50.710;14.492;2023-11-21T02:10:47;6.97;;;3.70;;
65471;SDS011;52068;50.710;14.492;2023-11-21T02:13:13;7.00;;;4.45;;
65471;SDS011;52068;50.710;14.492;2023-11-21T02:15:38;6.97;;;4.28;;
65471;SDS011;52068;50.710;14.492;2023-11-21T02:18:04;8.32;;;4.32;;
65471;SDS011;52068;50.710;14.492;2023-11-21T02:20:31;9.52;;;4.18;;
65471;SDS011;52068;50.710;14.492;2023-11-21T02:22:59;8.15;;;4.32;;
65471;SDS011;52068;50.710;14.492;2023-11-21T02:27:55;8.07;;;4.32;;
65471;SDS011;52068;50.710;14.492;2023-11-21T02:30:27;7.00;;;3.97;;
65471;SDS011;52068;50.710;14.492;2023-11-21T02:32:53;13.57;;;4.15;;
65471;SDS011;52068;50.710;14.492;2023-11-21T02:35:20;8.50;;;4.43;;
65471;SDS011;52068;50.710;14.492;2023-11-21T02:37:50;8.82;;;5.00;;
65471;SDS011;52068;50.710;14.492;2023-11-21T02:40:16;10.35;;;4.68;;
65471;SDS011;52068;50.710;14.492;2023-11-21T02:42:43;13.52;;;4.93;;
65471;SDS011;52068;50.710;14.492;2023-11-21T02:45:12;10.48;;;4.03;;
65471;SDS011;52068;50.710;14.492;2023-11-21T02:47:39;7.35;;;4.60;;
65471;SDS011;52068;50.710;14.492;2023-11-21T02:50:05;7.38;;;4.25;;
65471;SDS011;52068;50.710;14.492;2023-11-21T02:52:33;8.40;;;4.70;;
65471;SDS011;52068;50.710;14.492;2023-11-21T02:54:58;8.45;;;4.65;;
65471;SDS011;52068;50.710;14.492;2023-11-21T02:57:24;6.47;;;4.07;;
65471;SDS011;52068;50.710;14.492;2023-11-21T02:59:49;6.88;;;4.05;;
65471;SDS011;52068;50.710;14.492;2023-11-21T03:02:15;8.88;;;4.28;;
65471;SDS011;52068;50.710;14.492;2023-11-21T03:04:41;7.13;;;4.05;;
65471;SDS011;52068;50.710;14.492;2023-11-21T03:07:07;7.45;;;4.20;;
65471;SDS011;52068;50.710;14.492;2023-11-21T03:09:33;7.32;;;4.35;;
65471;SDS011;52068;50.710;14.492;2023-11-21T03:11:59;7.10;;;4.28;;
65471;SDS011;52068;50.710;14.492;2023-11-21T03:14:24;6.20;;;3.85;;
65471;SDS011;52068;50.710;14.492;2023-11-21T03:16:50;7.88;;;4.07;;
65471;SDS011;52068;50.710;14.492;2023-11-21T03:19:15;8.68;;;4.22;;
65471;SDS011;52068;50.710;14.492;2023-11-21T03:21:40;7.75;;;4.13;;
65471;SDS011;52068;50.710;14.492;2023-11-21T03:24:06;6.13;;;3.97;;
65471;SDS011;52068;50.710;14.492;2023-11-21T03:26:32;8.23;;;4.07;;
65471;SDS011;52068;50.710;14.492;2023-11-21T03:28:58;8.02;;;4.20;;
65471;SDS011;52068;50.710;14.492;2023-11-21T03:31:23;7.40;;;4.55;;
65471;SDS011;52068;50.710;14.492;2023-11-21T03:33:48;7.10;;;4.07;;
65471;SDS011;52068;50.710;14.492;2023-11-21T03:36:14;6.82;;;3.95;;
65471;SDS011;52068;50.710;14.492;2023-11-21T03:38:40;8.02;;;3.92;;
65471;SDS011;52068;50.710;14.492;2023-11-21T03:41:06;6.68;;;4.15;;
65471;SDS011;52068;50.710;14.492;2023-11-21T03:43:31;7.38;;;4.30;;
65471;SDS011;52068;50.710;14.492;2023-11-21T03:45:57;6.60;;;3.88;;
65471;SDS011;52068;50.710;14.492;2023-11-21T03:48:22;6.45;;;3.88;;
65471;SDS011;52068;50.710;14.492;2023-11-21T03:50:48;6.43;;;4.15;;
65471;SDS011;52068;50.710;14.492;2023-11-21T03:53:13;6.80;;;4.07;;
65471;SDS011;52068;50.710;14.492;2023-11-21T03:55:39;9.20;;;4.00;;
65471;SDS011;52068;50.710;14.492;2023-11-21T03:58:04;6.03;;;3.83;;
65471;SDS011;52068;50.710;14.492;2023-11-21T04:00:30;5.95;;;3.72;;
65471;SDS011;52068;50.710;14.492;2023-11-21T04:02:56;7.63;;;4.07;;
65471;SDS011;52068;50.710;14.492;2023-11-21T04:05:21;6.53;;;4.03;;
65471;SDS011;52068;50.710;14.492;2023-11-21T04:07:51;6.97;;;3.95;;
65471;SDS011;52068;50.710;14.492;2023-11-21T04:10:17;5.57;;;3.72;;
65471;SDS011;52068;50.710;14.492;2023-11-21T04:12:43;9.93;;;4.30;;
65471;SDS011;52068;50.710;14.492;2023-11-21T04:15:09;11.20;;;4.32;;
65471;SDS011;52068;50.710;14.492;2023-11-21T04:17:35;5.78;;;4.05;;
65471;SDS011;52068;50.710;14.492;2023-11-21T04:20:02;6.13;;;3.95;;
65471;SDS011;52068;50.710;14.492;2023-11-21T04:22:33;7.82;;;4.28;;
65471;SDS011;52068;50.710;14.492;2023-11-21T04:24:58;8.13;;;4.13;;
65471;SDS011;52068;50.710;14.492;2023-11-21T04:27:24;7.78;;;3.80;;
65471;SDS011;52068;50.710;14.492;2023-11-21T04:29:49;6.25;;;3.55;;
65471;SDS011;52068;50.710;14.492;2023-11-21T04:32:14;8.73;;;4.18;;
65471;SDS011;52068;50.710;14.492;2023-11-21T04:34:41;10.75;;;4.13;;
65471;SDS011;52068;50.710;14.492;2023-11-21T04:37:06;7.00;;;4.32;;
65471;SDS011;52068;50.710;14.492;2023-11-21T04:39:31;6.55;;;3.60;;
65471;SDS011;52068;50.710;14.492;2023-11-21T04:41:57;6.90;;;4.00;;
65471;SDS011;52068;50.710;14.492;2023-11-21T04:44:22;6.22;;;3.70;;
65471;SDS011;52068;50.710;14.492;2023-11-21T04:46:48;9.23;;;3.75;;
65471;SDS011;52068;50.710;14.492;2023-11-21T04:49:13;5.32;;;3.47;;
65471;SDS011;52068;50.710;14.492;2023-11-21T04:51:39;6.32;;;3.63;;
65471;SDS011;52068;50.710;14.492;2023-11-21T04:54:04;5.97;;;3.30;;
65471;SDS011;52068;50.710;14.492;2023-11-21T04:56:30;7.45;;;4.00;;
65471;SDS011;52068;50.710;14.492;2023-11-21T04:58:56;7.53;;;3.58;;
65471;SDS011;52068;50.710;14.492;2023-11-21T05:01:21;11.65;;;3.65;;
65471;SDS011;52068;50.710;14.492;2023-11-21T05:03:47;6.47;;;3.75;;
65471;SDS011;52068;50.710;14.492;2023-11-21T05:06:14;6.32;;;3.78;;
65471;SDS011;52068;50.710;14.492;2023-11-21T05:08:39;6.82;;;4.10;;
65471;SDS011;52068;50.710;14.492;2023-11-21T05:11:05;6.63;;;3.60;;
65471;SDS011;52068;50.710;14.492;2023-11-21T05:13:33;7.20;;;3.40;;
65471;SDS011;52068;50.710;14.492;2023-11-21T05:15:59;5.40;;;3.75;;
65471;SDS011;52068;50.710;14.492;2023-11-21T05:18:24;5.15;;;3.42;;
65471;SDS011;52068;50.710;14.492;2023-11-21T05:20:54;4.50;;;3.30;;
65471;SDS011;52068;50.710;14.492;2023-11-21T05:23:20;5.65;;;3.50;;
65471;SDS011;52068;50.710;14.492;2023-11-21T05:25:46;4.90;;;3.40;;
65471;SDS011;52068;50.710;14.492;2023-11-21T05:28:11;8.23;;;3.50;;
65471;SDS011;52068;50.710;14.492;2023-11-21T05:30:37;4.40;;;3.30;;
65471;SDS011;52068;50.710;14.492;2023-11-21T05:33:04;6.10;;;3.38;;
65471;SDS011;52068;50.710;14.492;2023-11-21T05:35:29;10.73;;;4.30;;
65471;SDS011;52068;50.710;14.492;2023-11-21T05:37:55;5.03;;;3.15;;
65471;SDS011;52068;50.710;14.492;2023-11-21T05:40:20;5.25;;;3.33;;
65471;SDS011;52068;50.710;14.492;2023-11-21T05:42:47;5.22;;;3.47;;
65471;SDS011;52068;50.710;14.492;2023-11-21T05:45:13;8.05;;;3.75;;
65471;SDS011;52068;50.710;14.492;2023-11-21T05:47:39;6.03;;;3.45;;
65471;SDS011;52068;50.710;14.492;2023-11-21T05:50:06;5.55;;;3.70;;
65471;SDS011;52068;50.710;14.492;2023-11-21T05:52:37;5.80;;;3.72;;
65471;SDS011;52068;50.710;14.492;2023-11-21T05:55:06;5.45;;;3.33;;
65471;SDS011;52068;50.710;14.492;2023-11-21T05:57:33;5.60;;;3.50;;
65471;SDS011;52068;50.710;14.492;2023-11-21T06:00:06;5.30;;;3.70;;
65471;SDS011;52068;50.710;14.492;2023-11-21T06:02:37;7.43;;;3.40;;
65471;SDS011;52068;50.710;14.492;2023-11-21T06:05:06;4.53;;;3.25;;
65471;SDS011;52068;50.710;14.492;2023-11-21T06:07:32;5.88;;;3.95;;
65471;SDS011;52068;50.710;14.492;2023-11-21T06:09:58;3.75;;;2.83;;
65471;SDS011;52068;50.710;14.492;2023-11-21T06:12:24;4.82;;;3.50;;
65471;SDS011;52068;50.710;14.492;2023-11-21T06:14:50;4.80;;;3.42;;
65471;SDS011;52068;50.710;14.492;2023-11-21T06:17:16;5.75;;;3.53;;
65471;SDS011;52068;50.710;14.492;2023-11-21T06:19:42;5.70;;;2.90;;
65471;SDS011;52068;50.710;14.492;2023-11-21T06:22:10;6.38;;;3.75;;
65471;SDS011;52068;50.710;14.492;2023-11-21T06:24:36;4.82;;;3.10;;
65471;SDS011;52068;50.710;14.492;2023-11-21T06:27:03;5.18;;;3.67;;
65471;SDS011;52068;50.710;14.492;2023-11-21T06:29:29;5.80;;;3.83;;
65471;SDS011;52068;50.710;14.492;2023-11-21T06:31:55;6.40;;;3.55;;
65471;SDS011;52068;50.710;14.492;2023-11-21T06:34:20;6.25;;;3.47;;
65471;SDS011;52068;50.710;14.492;2023-11-21T06:36:46;5.72;;;3.15;;
65471;SDS011;52068;50.710;14.492;2023-11-21T06:39:12;4.35;;;3.33;;
65471;SDS011;52068;50.710;14.492;2023-11-21T06:41:40;6.35;;;3.63;;
65471;SDS011;52068;50.710;14.492;2023-11-21T06:44:05;14.52;;;3.28;;
65471;SDS011;52068;50.710;14.492;2023-11-21T06:46:31;7.75;;;4.07;;
65471;SDS011;52068;50.710;14.492;2023-11-21T06:48:56;19.77;;;4.00;;
65471;SDS011;52068;50.710;14.492;2023-11-21T06:51:21;5.03;;;3.33;;
65471;SDS011;52068;50.710;14.492;2023-11-21T06:53:47;5.57;;;3.72;;
65471;SDS011;52068;50.710;14.492;2023-11-21T06:56:18;10.10;;;4.53;;
65471;SDS011;52068;50.710;14.492;2023-11-21T06:58:45;7.70;;;3.83;;
65471;SDS011;52068;50.710;14.492;2023-11-21T07:01:12;10.02;;;5.10;;
65471;SDS011;52068;50.710;14.492;2023-11-21T07:03:38;8.80;;;5.15;;
65471;SDS011;52068;50.710;14.492;2023-11-21T07:06:04;9.75;;;5.18;;
65471;SDS011;52068;50.710;14.492;2023-11-21T07:08:30;8.55;;;5.32;;
65471;SDS011;52068;50.710;14.492;2023-11-21T07:10:55;11.52;;;6.00;;
65471;SDS011;52068;50.710;14.492;2023-11-21T07:13:21;12.60;;;5.55;;
65471;SDS011;52068;50.710;14.492;2023-11-21T07:15:46;10.73;;;6.53;;
65471;SDS011;52068;50.710;14.492;2023-11-21T07:18:13;10.10;;;6.13;;
65471;SDS011;52068;50.710;14.492;2023-11-21T07:20:38;10.77;;;6.63;;
65471;SDS011;52068;50.710;14.492;2023-11-21T07:23:04;11.10;;;7.43;;
65471;SDS011;52068;50.710;14.492;2023-11-21T07:25:30;11.65;;;6.85;;
65471;SDS011;52068;50.710;14.492;2023-11-21T07:27:56;14.50;;;8.07;;
65471;SDS011;52068;50.710;14.492;2023-11-21T07:30:22;12.60;;;7.55;;
65471;SDS011;52068;50.710;14.492;2023-11-21T07:32:48;15.77;;;8.20;;
65471;SDS011;52068;50.710;14.492;2023-11-21T07:35:13;16.90;;;8.48;;
65471;SDS011;52068;50.710;14.492;2023-11-21T07:37:39;14.57;;;8.02;;
65471;SDS011;52068;50.710;14.492;2023-11-21T07:40:04;16.95;;;8.27;;
65471;SDS011;52068;50.710;14.492;2023-11-21T07:42:30;14.50;;;8.35;;
65471;SDS011;52068;50.710;14.492;2023-11-21T07:44:56;15.18;;;8.32;;
65471;SDS011;52068;50.710;14.492;2023-11-21T07:47:21;14.50;;;7.72;;
65471;SDS011;52068;50.710;14.492;2023-11-21T07:49:47;13.23;;;8.35;;
65471;SDS011;52068;50.710;14.492;2023-11-21T07:52:13;16.63;;;8.50;;
65471;SDS011;52068;50.710;14.492;2023-11-21T07:54:39;27.30;;;9.07;;
65471;SDS011;52068;50.710;14.492;2023-11-21T07:57:05;15.38;;;8.93;;
65471;SDS011;52068;50.710;14.492;2023-11-21T07:59:30;19.77;;;9.32;;
65471;SDS011;52068;50.710;14.492;2023-11-21T08:01:56;16.75;;;9.13;;
65471;SDS011;52068;50.710;14.492;2023-11-21T08:04:21;14.52;;;8.98;;
65471;SDS011;52068;50.710;14.492;2023-11-21T08:06:47;17.92;;;8.93;;
65471;SDS011;52068;50.710;14.492;2023-11-21T08:09:12;17.73;;;8.95;;
65471;SDS011;52068;50.710;14.492;2023-11-21T08:11:38;17.17;;;8.85;;
65471;SDS011;52068;50.710;14.492;2023-11-21T08:14:03;19.42;;;9.00;;
65471;SDS011;52068;50.710;14.492;2023-11-21T08:16:29;15.98;;;9.10;;
65471;SDS011;52068;50.710;14.492;2023-11-21T08:18:55;16.73;;;9.18;;
65471;SDS011;52068;50.710;14.492;2023-11-21T08:21:21;15.73;;;8.77;;
65471;SDS011;52068;50.710;14.492;2023-11-21T08:23:48;19.55;;;9.90;;
65471;SDS011;52068;50.710;14.492;2023-11-21T08:26:18;14.50;;;8.60;;
65471;SDS011;52068;50.710;14.492;2023-11-21T08:28:44;16.52;;;9.38;;
65471;SDS011;52068;50.710;14.492;2023-11-21T08:31:09;18.45;;;10.02;;
65471;SDS011;52068;50.710;14.492;2023-11-21T08:33:35;20.30;;;9.13;;
65471;SDS011;52068;50.710;14.492;2023-11-21T08:36:00;21.80;;;9.52;;
65471;SDS011;52068;50.710;14.492;2023-11-21T08:38:26;17.38;;;9.32;;
65471;SDS011;52068;50.710;14.492;2023-11-21T08:40:53;16.17;;;9.32;;
65471;SDS011;52068;50.710;14.492;2023-11-21T08:43:19;14.75;;;8.98;;
65471;SDS011;52068;50.710;14.492;2023-11-21T08:45:45;19.08;;;10.10;;
65471;SDS011;52068;50.710;14.492;2023-11-21T08:48:10;15.63;;;8.80;;
65471;SDS011;52068;50.710;14.492;2023-11-21T08:50:36;17.60;;;9.20;;
65471;SDS011;52068;50.710;14.492;2023-11-21T08:53:02;17.55;;;8.90;;
65471;SDS011;52068;50.710;14.492;2023-11-21T08:55:27;20.65;;;9.95;;
65471;SDS011;52068;50.710;14.492;2023-11-21T08:57:53;16.70;;;8.85;;
65471;SDS011;52068;50.710;14.492;2023-11-21T09:00:19;16.67;;;8.98;;
65471;SDS011;52068;50.710;14.492;2023-11-21T09:02:44;15.80;;;8.85;;
65471;SDS011;52068;50.710;14.492;2023-11-21T09:05:10;23.88;;;9.02;;
65471;SDS011;52068;50.710;14.492;2023-11-21T09:07:36;16.67;;;8.20;;
65471;SDS011;52068;50.710;14.492;2023-11-21T09:10:03;16.42;;;8.85;;
65471;SDS011;52068;50.710;14.492;2023-11-21T09:12:32;16.88;;;9.07;;
65471;SDS011;52068;50.710;14.492;2023-11-21T09:14:58;15.13;;;7.13;;
65471;SDS011;52068;50.710;14.492;2023-11-21T09:17:23;12.63;;;6.25;;
65471;SDS011;52068;50.710;14.492;2023-11-21T09:19:49;12.82;;;6.22;;
65471;SDS011;52068;50.710;14.492;2023-11-21T09:22:16;53.60;;;22.40;;
65471;SDS011;52068;50.710;14.492;2023-11-21T09:24:42;42.80;;;20.80;;
65471;SDS011;52068;50.710;14.492;2023-11-21T09:27:08;32.65;;;14.05;;
65471;SDS011;52068;50.710;14.492;2023-11-21T09:29:34;19.83;;;9.25;;
65471;SDS011;52068;50.710;14.492;2023-11-21T09:32:00;20.77;;;8.38;;
65471;SDS011;52068;50.710;14.492;2023-11-21T09:34:26;21.90;;;10.73;;
65471;SDS011;52068;50.710;14.492;2023-11-21T09:36:52;16.15;;;8.77;;
65471;SDS011;52068;50.710;14.492;2023-11-21T09:39:18;18.27;;;9.48;;
65471;SDS011;52068;50.710;14.492;2023-11-21T09:41:44;17.70;;;9.20;;
65471;SDS011;52068;50.710;14.492;2023-11-21T09:44:14;16.45;;;9.10;;
65471;SDS011;52068;50.710;14.492;2023-11-21T09:46:43;17.67;;;9.50;;
65471;SDS011;52068;50.710;14.492;2023-11-21T09:49:11;17.33;;;9.52;;
65471;SDS011;52068;50.710;14.492;2023-11-21T09:51:42;16.70;;;9.40;;
65471;SDS011;52068;50.710;14.492;2023-11-21T09:54:08;16.05;;;9.43;;
65471;SDS011;52068;50.710;14.492;2023-11-21T09:56:37;15.40;;;8.60;;
65471;SDS011;52068;50.710;14.492;2023-11-21T09:59:03;16.98;;;9.05;;
65471;SDS011;52068;50.710;14.492;2023-11-21T10:01:33;18.20;;;8.90;;
65471;SDS011;52068;50.710;14.492;2023-11-21T10:04:02;14.90;;;8.70;;
65471;SDS011;52068;50.710;14.492;2023-11-21T10:06:28;13.77;;;8.27;;
65471;SDS011;52068;50.710;14.492;2023-11-21T10:08:53;14.98;;;9.00;;
65471;SDS011;52068;50.710;14.492;2023-11-21T10:11:23;16.33;;;8.43;;
65471;SDS011;52068;50.710;14.492;2023-11-21T10:13:52;14.48;;;7.95;;
65471;SDS011;52068;50.710;14.492;2023-11-21T10:16:19;15.00;;;8.30;;
65471;SDS011;52068;50.710;14.492;2023-11-21T10:18:49;19.92;;;7.80;;
65471;SDS011;52068;50.710;14.492;2023-11-21T10:21:20;14.05;;;7.50;;
65471;SDS011;52068;50.710;14.492;2023-11-21T10:23:46;13.52;;;8.07;;
65471;SDS011;52068;50.710;14.492;2023-11-21T10:26:13;14.07;;;7.88;;
65471;SDS011;52068;50.710;14.492;2023-11-21T10:29:00;18.48;;;7.80;;
65471;SDS011;52068;50.710;14.492;2023-11-21T10:31:29;13.20;;;7.75;;
65471;SDS011;52068;50.710;14.492;2023-11-21T10:34:10;13.30;;;7.60;;
65471;SDS011;52068;50.710;14.492;2023-11-21T10:36:45;11.38;;;6.88;;
65471;SDS011;52068;50.710;14.492;2023-11-21T10:39:20;12.88;;;7.05;;
65471;SDS011;52068;50.710;14.492;2023-11-21T10:41:48;15.80;;;7.53;;
65471;SDS011;52068;50.710;14.492;2023-11-21T10:44:15;11.00;;;6.70;;
65471;SDS011;52068;50.710;14.492;2023-11-21T10:46:52;13.93;;;6.82;;
65471;SDS011;52068;50.710;14.492;2023-11-21T10:49:24;13.82;;;6.47;;
65471;SDS011;52068;50.710;14.492;2023-11-21T10:51:51;13.52;;;6.40;;
65471;SDS011;52068;50.710;14.492;2023-11-21T10:54:21;13.70;;;6.63;;
65471;SDS011;52068;50.710;14.492;2023-11-21T10:56:53;15.73;;;5.97;;
65471;SDS011;52068;50.710;14.492;2023-11-21T10:59:25;13.30;;;6.10;;
65471;SDS011;52068;50.710;14.492;2023-11-21T11:01:54;12.35;;;6.18;;
65471;SDS011;52068;50.710;14.492;2023-11-21T11:04:23;11.88;;;5.97;;
65471;SDS011;52068;50.710;14.492;2023-11-21T11:06:56;10.95;;;5.65;;
65471;SDS011;52068;50.710;14.492;2023-11-21T11:09:24;11.15;;;5.53;;
65471;SDS011;52068;50.710;14.492;2023-11-21T11:11:50;10.77;;;5.78;;
65471;SDS011;52068;50.710;14.492;2023-11-21T11:14:16;9.55;;;5.20;;
65471;SDS011;52068;50.710;14.492;2023-11-21T11:16:44;9.85;;;5.13;;
65471;SDS011;52068;50.710;14.492;2023-11-21T11:19:10;9.50;;;5.30;;
65471;SDS011;52068;50.710;14.492;2023-11-21T11:24:33;9.48;;;5.22;;
65471;SDS011;52068;50.710;14.492;2023-11-21T11:37:46;11.63;;;4.65;;
65471;SDS011;52068;50.710;14.492;2023-11-21T11:40:12;12.18;;;5.18;;
65471;SDS011;52068;50.710;14.492;2023-11-21T11:42:37;9.73;;;4.47;;
65471;SDS011;52068;50.710;14.492;2023-11-21T11:45:16;8.88;;;4.60;;
65471;SDS011;52068;50.710;14.492;2023-11-21T11:47:42;7.80;;;4.20;;
65471;SDS011;52068;50.710;14.492;2023-11-21T11:50:10;11.35;;;4.55;;
65471;SDS011;52068;50.710;14.492;2023-11-21T11:52:46;9.07;;;4.28;;
65471;SDS011;52068;50.710;14.492;2023-11-21T11:55:12;7.93;;;4.05;;
65471;SDS011;52068;50.710;14.492;2023-11-21T11:57:42;9.38;;;4.03;;
65471;SDS011;52068;50.710;14.492;2023-11-21T12:00:12;11.13;;;4.40;;
65471;SDS011;52068;50.710;14.492;2023-11-21T12:02:46;7.00;;;3.97;;
65471;SDS011;52068;50.710;14.492;2023-11-21T12:05:17;6.55;;;3.67;;
65471;SDS011;52068;50.710;14.492;2023-11-21T12:10:18;7.35;;;3.80;;
65471;SDS011;52068;50.710;14.492;2023-11-21T12:12:51;8.20;;;4.13;;
65471;SDS011;52068;50.710;14.492;2023-11-21T12:15:18;7.30;;;4.10;;
65471;SDS011;52068;50.710;14.492;2023-11-21T12:17:44;7.18;;;3.33;;
65471;SDS011;52068;50.710;14.492;2023-11-21T12:20:11;9.10;;;3.85;;
65471;SDS011;52068;50.710;14.492;2023-11-21T12:22:45;5.57;;;3.60;;
65471;SDS011;52068;50.710;14.492;2023-11-21T12:27:47;6.07;;;3.22;;
65471;SDS011;52068;50.710;14.492;2023-11-21T12:30:15;7.75;;;3.50;;
65471;SDS011;52068;50.710;14.492;2023-11-21T12:32:47;6.95;;;3.33;;
65471;SDS011;52068;50.710;14.492;2023-11-21T12:35:15;5.55;;;3.28;;
65471;SDS011;52068;50.710;14.492;2023-11-21T12:37:44;6.18;;;3.20;;
65471;SDS011;52068;50.710;14.492;2023-11-21T12:40:10;5.53;;;3.20;;
65471;SDS011;52068;50.710;14.492;2023-11-21T12:42:39;6.15;;;3.22;;
65471;SDS011;52068;50.710;14.492;2023-11-21T12:47:42;4.88;;;3.33;;
65471;SDS011;52068;50.710;14.492;2023-11-21T12:50:08;5.82;;;3.10;;
65471;SDS011;52068;50.710;14.492;2023-11-21T12:52:41;4.55;;;3.22;;
65471;SDS011;52068;50.710;14.492;2023-11-21T12:55:09;5.72;;;3.35;;
65471;SDS011;52068;50.710;14.492;2023-11-21T12:57:34;4.63;;;3.00;;
65471;SDS011;52068;50.710;14.492;2023-11-21T13:00:03;3.45;;;2.70;;
65471;SDS011;52068;50.710;14.492;2023-11-21T13:02:37;4.35;;;2.65;;
65471;SDS011;52068;50.710;14.492;2023-11-21T13:05:03;4.38;;;2.92;;
65471;SDS011;52068;50.710;14.492;2023-11-21T13:07:40;9.95;;;3.08;;
65471;SDS011;52068;50.710;14.492;2023-11-21T13:10:11;7.75;;;3.17;;
65471;SDS011;52068;50.710;14.492;2023-11-21T13:12:44;5.80;;;3.22;;
65471;SDS011;52068;50.710;14.492;2023-11-21T13:15:13;3.95;;;2.92;;
65471;SDS011;52068;50.710;14.492;2023-11-21T13:17:42;4.22;;;2.67;;
65471;SDS011;52068;50.710;14.492;2023-11-21T13:20:10;6.13;;;2.90;;
65471;SDS011;52068;50.710;14.492;2023-11-21T13:22:44;4.63;;;2.97;;
65471;SDS011;52068;50.710;14.492;2023-11-21T13:25:14;4.75;;;3.00;;
65471;SDS011;52068;50.710;14.492;2023-11-21T13:27:42;5.50;;;2.92;;
65471;SDS011;52068;50.710;14.492;2023-11-21T13:30:09;4.97;;;2.85;;
65471;SDS011;52068;50.710;14.492;2023-11-21T13:32:35;4.22;;;2.65;;
65471;SDS011;52068;50.710;14.492;2023-11-21T13:35:00;3.95;;;2.90;;
65471;SDS011;52068;50.710;14.492;2023-11-21T13:37:26;3.53;;;2.80;;
65471;SDS011;52068;50.710;14.492;2023-11-21T13:39:53;5.50;;;2.50;;
65471;SDS011;52068;50.710;14.492;2023-11-21T13:42:19;11.32;;;2.78;;
65471;SDS011;52068;50.710;14.492;2023-11-21T13:44:55;4.45;;;2.47;;
65471;SDS011;52068;50.710;14.492;2023-11-21T13:47:21;7.85;;;3.15;;
65471;SDS011;52068;50.710;14.492;2023-11-21T13:49:50;4.80;;;2.60;;
65471;SDS011;52068;50.710;14.492;2023-11-21T13:52:15;6.55;;;2.83;;
65471;SDS011;52068;50.710;14.492;2023-11-21T13:54:42;8.00;;;2.63;;
65471;SDS011;52068;50.710;14.492;2023-11-21T13:57:08;3.30;;;2.30;;
65471;SDS011;52068;50.710;14.492;2023-11-21T13:59:34;3.35;;;2.42;;
65471;SDS011;52068;50.710;14.492;2023-11-21T14:02:01;7.43;;;2.80;;
65471;SDS011;52068;50.710;14.492;2023-11-21T14:04:42;8.07;;;2.58;;
65471;SDS011;52068;50.710;14.492;2023-11-21T14:07:21;5.38;;;2.80;;
65471;SDS011;52068;50.710;14.492;2023-11-21T14:10:00;3.80;;;2.53;;
65471;SDS011;52068;50.710;14.492;2023-11-21T14:12:26;3.83;;;2.50;;
65471;SDS011;52068;50.710;14.492;2023-11-21T14:14:53;4.07;;;2.67;;
65471;SDS011;52068;50.710;14.492;2023-11-21T14:17:20;6.03;;;2.60;;
65471;SDS011;52068;50.710;14.492;2023-11-21T14:19:47;9.82;;;3.05;;
65471;SDS011;52068;50.710;14.492;2023-11-21T14:22:14;5.72;;;2.50;;
65471;SDS011;52068;50.710;14.492;2023-11-21T14:24:39;5.07;;;2.70;;
65471;SDS011;52068;50.710;14.492;2023-11-21T14:27:11;4.68;;;2.55;;
65471;SDS011;52068;50.710;14.492;2023-11-21T14:29:37;26.38;;;3.25;;
65471;SDS011;52068;50.710;14.492;2023-11-21T14:32:04;3.25;;;2.28;;
65471;SDS011;52068;50.710;14.492;2023-11-21T14:34:30;5.97;;;2.70;;
65471;SDS011;52068;50.710;14.492;2023-11-21T14:36:56;5.75;;;2.80;;
65471;SDS011;52068;50.710;14.492;2023-11-21T14:39:22;4.38;;;2.78;;
65471;SDS011;52068;50.710;14.492;2023-11-21T14:41:54;4.70;;;2.58;;
65471;SDS011;52068;50.710;14.492;2023-11-21T14:44:23;5.28;;;2.50;;
65471;SDS011;52068;50.710;14.492;2023-11-21T14:46:51;5.07;;;2.60;;
65471;SDS011;52068;50.710;14.492;2023-11-21T14:49:18;5.72;;;2.38;;
65471;SDS011;52068;50.710;14.492;2023-11-21T14:51:46;3.80;;;2.30;;
65471;SDS011;52068;50.710;14.492;2023-11-21T14:54:26;5.20;;;2.45;;